createdAt,value
2016-09-12T00:00:39.527Z,14.92
2016-09-12T00:01:39.251Z,14.97
2016-09-12T00:02:39.273Z,14.99
2016-09-12T00:03:39.343Z,14.94
2016-09-12T00:04:39.530Z,14.97
2016-09-12T00:05:39.737Z,14.89
2016-09-12T00:06:39.372Z,14.89
2016-09-12T00:07:39.398Z,15
2016-09-12T00:08:39.770Z,15
2016-09-12T00:09:39.735Z,14.99
2016-09-12T00:10:39.458Z,15.04
2016-09-12T00:11:39.815Z,14.99
2016-09-12T00:12:39.510Z,14.97
2016-09-12T00:13:39.892Z,14.99
2016-09-12T00:14:39.685Z,15.02
2016-09-12T00:15:39.568Z,15
2016-09-12T00:16:39.708Z,15.05
2016-09-12T00:17:39.913Z,15.18
2016-09-12T00:18:39.649Z,15.15
2016-09-12T00:19:39.969Z,15.17
2016-09-12T00:20:40.088Z,15.25
2016-09-12T00:21:40.309Z,15.29
2016-09-12T00:22:39.782Z,15.25
2016-09-12T00:23:39.786Z,15.39
2016-09-12T00:24:39.889Z,15.43
2016-09-12T00:25:40.087Z,15.39
2016-09-12T00:26:40.038Z,15.47
2016-09-12T00:27:39.886Z,15.55
2016-09-12T00:28:39.877Z,15.44
2016-09-12T00:29:39.915Z,15.54
2016-09-12T00:30:39.891Z,15.5
2016-09-12T00:31:39.924Z,15.55
2016-09-12T00:32:39.958Z,15.57
2016-09-12T00:33:40.092Z,15.55
2016-09-12T00:34:40.195Z,15.59
2016-09-12T00:35:39.994Z,15.5
2016-09-12T00:36:40.044Z,15.65
2016-09-12T00:37:40.083Z,15.57
2016-09-12T00:38:40.138Z,15.55
2016-09-12T00:39:40.426Z,15.62
2016-09-12T00:40:40.194Z,15.54
2016-09-12T00:41:40.135Z,15.7
2016-09-12T00:42:40.225Z,15.7
2016-09-12T00:43:40.175Z,15.72
2016-09-12T00:44:40.233Z,15.75
2016-09-12T00:45:40.238Z,15.7
2016-09-12T00:46:40.289Z,15.76
2016-09-12T00:47:40.275Z,15.76
2016-09-12T00:48:40.419Z,15.65
2016-09-12T00:49:40.639Z,15.69
2016-09-12T00:50:40.655Z,15.78
2016-09-12T00:51:40.528Z,15.83
2016-09-12T00:52:40.388Z,15.76
2016-09-12T00:53:40.774Z,15.81
2016-09-12T00:54:40.429Z,15.78
2016-09-12T00:55:40.590Z,15.84
2016-09-12T00:56:40.625Z,15.84
2016-09-12T00:57:40.513Z,15.87
2016-09-12T00:58:40.584Z,15.83
2016-09-12T00:59:41.015Z,15.84
2016-09-12T01:00:40.887Z,15.87
2016-09-12T01:01:40.604Z,15.83
2016-09-12T01:02:40.622Z,15.87
2016-09-12T01:03:40.934Z,15.84
2016-09-12T01:04:40.678Z,15.8
2016-09-12T01:05:40.724Z,15.83
2016-09-12T01:06:40.708Z,15.84
2016-09-12T01:07:41.048Z,15.84
2016-09-12T01:08:40.750Z,15.9
2016-09-12T01:09:41.060Z,15.87
2016-09-12T01:10:40.808Z,15.83
2016-09-12T01:11:40.797Z,15.84
2016-09-12T01:12:40.915Z,15.85
2016-09-12T01:13:40.856Z,15.88
2016-09-12T01:14:40.881Z,15.8
2016-09-12T01:15:40.908Z,15.91
2016-09-12T01:16:41.221Z,15.87
2016-09-12T01:17:40.936Z,15.85
2016-09-12T01:18:40.985Z,15.81
2016-09-12T01:19:41.007Z,15.84
2016-09-12T01:20:41.003Z,15.84
2016-09-12T01:21:41.422Z,15.88
2016-09-12T01:22:41.048Z,15.84
2016-09-12T01:23:41.068Z,15.8
2016-09-12T01:24:41.102Z,15.76
2016-09-12T01:25:41.760Z,15.87
2016-09-12T01:26:41.137Z,15.81
2016-09-12T01:27:41.181Z,15.81
2016-09-12T01:28:41.177Z,15.88
2016-09-12T01:29:41.253Z,15.8
2016-09-12T01:30:41.224Z,15.8
2016-09-12T01:31:41.707Z,15.76
2016-09-12T01:32:41.618Z,15.73
2016-09-12T01:33:41.353Z,15.72
2016-09-12T01:34:41.482Z,15.78
2016-09-12T01:35:41.336Z,15.78
2016-09-12T01:36:41.367Z,15.78
2016-09-12T01:37:41.394Z,15.78
2016-09-12T01:38:41.748Z,15.75
2016-09-12T01:39:41.426Z,15.83
2016-09-12T01:40:41.459Z,15.81
2016-09-12T01:41:41.510Z,15.81
2016-09-12T01:42:41.488Z,15.8
2016-09-12T01:43:41.827Z,15.69
2016-09-12T01:44:42.248Z,15.75
2016-09-12T01:45:41.585Z,15.75
2016-09-12T01:46:41.947Z,15.76
2016-09-12T01:47:41.905Z,15.66
2016-09-12T01:48:41.950Z,15.76
2016-09-12T01:49:41.660Z,15.75
2016-09-12T01:50:41.668Z,15.75
2016-09-12T01:51:41.690Z,15.72
2016-09-12T01:52:42.100Z,15.73
2016-09-12T01:53:41.753Z,15.76
2016-09-12T01:54:41.782Z,15.78
2016-09-12T01:55:41.786Z,15.67
2016-09-12T01:56:41.840Z,15.72
2016-09-12T01:57:41.870Z,15.7
2016-09-12T01:58:41.839Z,15.73
2016-09-12T01:59:42.183Z,15.6
2016-09-12T02:00:42.037Z,15.62
2016-09-12T02:01:42.224Z,15.54
2016-09-12T02:02:41.951Z,15.52
2016-09-12T02:03:42.385Z,15.59
2016-09-12T02:04:41.999Z,15.63
2016-09-12T02:05:42.021Z,15.55
2016-09-12T02:06:42.739Z,15.45
2016-09-12T02:07:42.450Z,15.55
2016-09-12T02:08:42.115Z,15.52
2016-09-12T02:09:42.087Z,15.51
2016-09-12T02:10:42.424Z,15.51
2016-09-12T02:11:42.118Z,15.55
2016-09-12T02:12:42.286Z,15.54
2016-09-12T02:13:42.215Z,15.48
2016-09-12T02:14:42.218Z,15.45
2016-09-12T02:15:42.225Z,15.52
2016-09-12T02:16:42.246Z,15.45
2016-09-12T02:17:42.599Z,15.5
2016-09-12T02:18:43.037Z,15.48
2016-09-12T02:19:42.296Z,15.43
2016-09-12T02:20:42.429Z,15.48
2016-09-12T02:21:42.347Z,15.39
2016-09-12T02:22:42.471Z,15.48
2016-09-12T02:23:42.450Z,15.45
2016-09-12T02:24:42.564Z,15.41
2016-09-12T02:25:42.749Z,15.41
2016-09-12T02:26:42.972Z,15.36
2016-09-12T02:27:42.677Z,15.35
2016-09-12T02:28:42.512Z,15.26
2016-09-12T02:29:42.552Z,15.33
2016-09-12T02:30:42.543Z,15.26
2016-09-12T02:31:42.898Z,15.25
2016-09-12T02:32:42.609Z,15.25
2016-09-12T02:33:42.656Z,15.27
2016-09-12T02:34:42.650Z,15.23
2016-09-12T02:35:42.663Z,15.25
2016-09-12T02:36:43.008Z,15.15
2016-09-12T02:37:42.715Z,15.17
2016-09-12T02:38:42.732Z,15.12
2016-09-12T02:39:42.747Z,15.12
2016-09-12T02:40:42.767Z,15.12
2016-09-12T02:41:42.785Z,15.17
2016-09-12T02:42:42.811Z,15.12
2016-09-12T02:43:42.837Z,15.11
2016-09-12T02:44:43.198Z,15.1
2016-09-12T02:45:43.200Z,15.1
2016-09-12T02:46:43.244Z,15.14
2016-09-12T02:47:42.927Z,15.18
2016-09-12T02:48:42.943Z,15.18
2016-09-12T02:49:42.955Z,15.1
2016-09-12T02:50:42.998Z,15.08
2016-09-12T02:51:43.005Z,15.08
2016-09-12T02:52:43.055Z,15.12
2016-09-12T02:53:43.056Z,15.14
2016-09-12T02:54:43.090Z,15.18
2016-09-12T02:55:43.178Z,15.14
2016-09-12T02:56:43.435Z,15.25
2016-09-12T02:57:43.143Z,15.15
2016-09-12T02:58:43.476Z,15.1
2016-09-12T02:59:43.189Z,15.18
2016-09-12T03:00:43.222Z,15.17
2016-09-12T03:01:43.547Z,15.15
2016-09-12T03:02:43.268Z,15.19
2016-09-12T03:03:43.318Z,15.15
2016-09-12T03:04:43.317Z,15.07
2016-09-12T03:05:43.714Z,15.19
2016-09-12T03:06:43.695Z,15.15
2016-09-12T03:07:43.609Z,15.11
2016-09-12T03:08:43.384Z,15.18
2016-09-12T03:09:43.411Z,15.1
2016-09-12T03:10:43.650Z,15.15
2016-09-12T03:11:43.707Z,15.11
2016-09-12T03:12:43.632Z,15.1
2016-09-12T03:13:43.668Z,15.04
2016-09-12T03:14:44.158Z,15.05
2016-09-12T03:15:43.691Z,15.04
2016-09-12T03:16:43.680Z,15
2016-09-12T03:17:44.046Z,14.99
2016-09-12T03:18:43.695Z,14.99
2016-09-12T03:19:43.703Z,15
2016-09-12T03:20:43.798Z,15.02
2016-09-12T03:21:43.721Z,15.04
2016-09-12T03:22:43.840Z,15.02
2016-09-12T03:23:43.705Z,14.97
2016-09-12T03:24:44.069Z,15.05
2016-09-12T03:25:44.414Z,14.99
2016-09-12T03:26:43.849Z,15.02
2016-09-12T03:27:43.794Z,14.97
2016-09-12T03:28:43.977Z,15.02
2016-09-12T03:29:44.180Z,15
2016-09-12T03:30:43.954Z,14.99
2016-09-12T03:31:43.961Z,14.94
2016-09-12T03:32:44.330Z,14.96
2016-09-12T03:33:43.987Z,14.9
2016-09-12T03:34:43.945Z,14.97
2016-09-12T03:35:44.103Z,14.89
2016-09-12T03:36:44.028Z,14.92
2016-09-12T03:37:44.028Z,14.82
2016-09-12T03:38:44.058Z,14.93
2016-09-12T03:39:44.066Z,14.82
2016-09-12T03:40:44.087Z,14.77
2016-09-12T03:41:44.106Z,14.78
2016-09-12T03:42:44.192Z,14.77
2016-09-12T03:43:44.166Z,14.7
2016-09-12T03:44:44.206Z,14.74
2016-09-12T03:45:44.234Z,14.63
2016-09-12T03:46:45.368Z,14.68
2016-09-12T03:47:44.565Z,14.68
2016-09-12T03:48:44.594Z,14.68
2016-09-12T03:49:44.275Z,14.68
2016-09-12T03:50:44.342Z,14.66
2016-09-12T03:51:44.640Z,14.7
2016-09-12T03:52:44.808Z,14.68
2016-09-12T03:53:44.691Z,14.79
2016-09-12T03:54:44.693Z,14.7
2016-09-12T03:55:44.718Z,14.78
2016-09-12T03:56:44.476Z,14.71
2016-09-12T03:57:44.759Z,14.82
2016-09-12T03:58:44.526Z,14.81
2016-09-12T03:59:44.505Z,14.79
2016-09-12T04:00:44.842Z,14.68
2016-09-12T04:01:44.564Z,14.67
2016-09-12T04:02:44.874Z,14.68
2016-09-12T04:03:44.937Z,14.66
2016-09-12T04:04:44.645Z,14.59
2016-09-12T04:05:44.633Z,14.59
2016-09-12T04:06:44.651Z,14.58
2016-09-12T04:07:44.748Z,14.68
2016-09-12T04:08:44.699Z,14.7
2016-09-12T04:09:45.091Z,14.67
2016-09-12T04:10:44.736Z,14.77
2016-09-12T04:11:45.070Z,14.73
2016-09-12T04:12:45.520Z,14.67
2016-09-12T04:13:45.114Z,14.63
2016-09-12T04:14:44.822Z,14.68
2016-09-12T04:15:45.050Z,14.68
2016-09-12T04:16:44.965Z,14.73
2016-09-12T04:17:45.658Z,14.68
2016-09-12T04:18:44.908Z,14.74
2016-09-12T04:19:44.947Z,14.77
2016-09-12T04:20:45.269Z,14.73
2016-09-12T04:21:44.977Z,14.71
2016-09-12T04:22:45.362Z,14.71
2016-09-12T04:23:45.027Z,14.67
2016-09-12T04:24:45.065Z,14.67
2016-09-12T04:25:45.067Z,14.67
2016-09-12T04:26:45.092Z,14.68
2016-09-12T04:27:45.101Z,14.77
2016-09-12T04:28:45.128Z,14.77
2016-09-12T04:29:45.179Z,14.7
2016-09-12T04:30:45.189Z,14.81
2016-09-12T04:31:45.508Z,14.81
2016-09-12T04:32:45.530Z,14.81
2016-09-12T04:33:45.327Z,14.81
2016-09-12T04:34:45.280Z,14.79
2016-09-12T04:35:45.315Z,14.79
2016-09-12T04:36:45.314Z,14.77
2016-09-12T04:37:45.315Z,14.92
2016-09-12T04:38:45.376Z,14.92
2016-09-12T04:39:45.388Z,14.93
2016-09-12T04:40:45.698Z,14.86
2016-09-12T04:41:45.396Z,14.81
2016-09-12T04:42:45.453Z,14.81
2016-09-12T04:43:45.922Z,14.81
2016-09-12T04:44:45.481Z,14.86
2016-09-12T04:45:45.795Z,14.81
2016-09-12T04:46:45.528Z,14.81
2016-09-12T04:47:45.576Z,14.89
2016-09-12T04:48:45.577Z,14.9
2016-09-12T04:49:45.883Z,14.93
2016-09-12T04:50:45.600Z,14.86
2016-09-12T04:51:45.792Z,14.86
2016-09-12T04:52:46.345Z,14.82
2016-09-12T04:53:45.733Z,14.87
2016-09-12T04:54:45.737Z,14.81
2016-09-12T04:55:45.721Z,14.85
2016-09-12T04:56:46.095Z,14.81
2016-09-12T04:57:45.758Z,14.82
2016-09-12T04:58:46.054Z,14.89
2016-09-12T04:59:46.117Z,14.86
2016-09-12T05:00:45.854Z,14.92
2016-09-12T05:01:45.842Z,14.89
2016-09-12T05:02:46.170Z,14.86
2016-09-12T05:03:46.237Z,14.85
2016-09-12T05:04:45.917Z,14.97
2016-09-12T05:05:45.981Z,14.85
2016-09-12T05:06:45.948Z,14.9
2016-09-12T05:07:46.063Z,14.93
2016-09-12T05:08:45.996Z,14.85
2016-09-12T05:09:45.998Z,14.85
2016-09-12T05:10:46.070Z,14.93
2016-09-12T05:11:46.191Z,14.82
2016-09-12T05:12:46.096Z,14.89
2016-09-12T05:13:46.395Z,14.93
2016-09-12T05:14:46.467Z,14.9
2016-09-12T05:15:46.185Z,14.99
2016-09-12T05:16:46.489Z,14.89
2016-09-12T05:17:46.212Z,14.97
2016-09-12T05:18:46.487Z,15
2016-09-12T05:19:46.561Z,14.97
2016-09-12T05:20:46.814Z,14.96
2016-09-12T05:21:46.305Z,15.05
2016-09-12T05:22:46.291Z,15.07
2016-09-12T05:23:46.317Z,15.11
2016-09-12T05:24:46.427Z,15.15
2016-09-12T05:25:46.367Z,15.07
2016-09-12T05:26:47.138Z,15.14
2016-09-12T05:27:46.682Z,15.18
2016-09-12T05:28:46.781Z,15.18
2016-09-12T05:29:46.627Z,15.17
2016-09-12T05:30:46.770Z,15.15
2016-09-12T05:31:46.633Z,15.12
2016-09-12T05:32:47.247Z,15.14
2016-09-12T05:33:46.937Z,15.25
2016-09-12T05:34:46.805Z,15.19
2016-09-12T05:35:46.675Z,15.19
2016-09-12T05:36:47.122Z,15.26
2016-09-12T05:37:46.973Z,15.25
2016-09-12T05:38:47.061Z,15.39
2016-09-12T05:39:46.745Z,15.39
2016-09-12T05:40:46.903Z,15.39
2016-09-12T05:41:47.319Z,15.43
2016-09-12T05:42:46.751Z,15.45
2016-09-12T05:43:46.778Z,15.45
2016-09-12T05:44:46.798Z,15.51
2016-09-12T05:45:46.845Z,15.54
2016-09-12T05:46:46.842Z,15.57
2016-09-12T05:47:47.232Z,15.52
2016-09-12T05:48:46.871Z,15.66
2016-09-12T05:49:47.513Z,15.76
2016-09-12T05:50:46.892Z,15.94
2016-09-12T05:51:47.759Z,16.36
2016-09-12T05:52:46.969Z,17.16
2016-09-12T05:53:46.995Z,17.9
2016-09-12T05:54:47.028Z,18.55
2016-09-12T05:55:47.458Z,19.2
2016-09-12T05:56:47.069Z,19.85
2016-09-12T05:57:47.070Z,20.49
2016-09-12T05:58:47.195Z,21.01
2016-09-12T05:59:47.127Z,21.6
2016-09-12T06:00:47.158Z,22.15
2016-09-12T06:01:47.153Z,22.65
2016-09-12T06:02:47.558Z,23.14
2016-09-12T06:03:47.254Z,23.66
2016-09-12T06:04:47.551Z,23.99
2016-09-12T06:05:47.308Z,24.18
2016-09-12T06:06:47.308Z,24.31
2016-09-12T06:07:47.628Z,24.66
2016-09-12T06:08:47.618Z,25.11
2016-09-12T06:09:53.343Z,25.56
2016-09-12T06:10:47.554Z,25.92
2016-09-12T06:11:47.419Z,26.15
2016-09-12T06:12:48.108Z,26.45
2016-09-12T06:13:47.846Z,26.55
2016-09-12T06:14:47.822Z,26.92
2016-09-12T06:15:47.702Z,27.07
2016-09-12T06:16:47.552Z,27.45
2016-09-12T06:17:48.829Z,27.6
2016-09-12T06:18:48.303Z,27.98
2016-09-12T06:19:47.607Z,28.2
2016-09-12T06:20:51.469Z,28.34
2016-09-12T06:23:07.548Z,28.7
2016-09-12T06:24:27.828Z,28.93
2016-09-12T06:24:38.229Z,28.97
2016-09-12T06:25:38.380Z,29.22
2016-09-12T06:26:38.710Z,29.46
2016-09-12T06:27:38.606Z,29.57
2016-09-12T06:28:38.671Z,29.49
2016-09-12T06:29:38.825Z,29.46
2016-09-12T06:30:38.710Z,29.42
2016-09-12T06:31:38.418Z,29.15
2016-09-12T06:32:38.761Z,28.87
2016-09-12T06:33:38.468Z,28.8
2016-09-12T06:34:38.807Z,28.78
2016-09-12T06:35:38.870Z,28.77
2016-09-12T06:36:38.575Z,28.64
2016-09-12T06:37:38.993Z,28.71
2016-09-12T06:38:38.394Z,28.67
2016-09-12T06:39:38.667Z,28.78
2016-09-12T06:40:40.238Z,28.87
2016-09-12T06:46:47.605Z,30.36
2016-09-12T06:50:13.979Z,31.41
2016-09-12T07:01:30.691Z,31.17
2016-09-12T07:10:40.869Z,32.41
2016-09-12T13:07:31.907Z,29.83
2016-09-12T13:08:32.238Z,29.73
2016-09-12T13:09:32.262Z,29.77
2016-09-12T13:10:31.691Z,29.81
2016-09-12T13:11:31.711Z,29.81
2016-09-12T13:12:32.363Z,29.79
2016-09-12T13:13:32.080Z,29.81
2016-09-12T13:14:32.421Z,29.87
2016-09-12T13:15:32.133Z,29.86
2016-09-12T13:16:32.193Z,29.89
2016-09-12T13:17:32.513Z,29.87
2016-09-12T13:18:32.544Z,29.84
2016-09-12T13:19:32.574Z,29.92
2016-09-12T13:20:32.731Z,29.87
2016-09-12T13:21:32.641Z,29.96
2016-09-12T13:22:32.674Z,29.98
2016-09-12T13:23:32.744Z,30.01
2016-09-12T13:24:32.409Z,29.96
2016-09-12T13:25:32.434Z,29.99
2016-09-12T13:26:32.777Z,29.99
2016-09-12T13:27:32.794Z,29.94
2016-09-12T13:28:32.821Z,30.01
2016-09-12T13:29:32.861Z,30.11
2016-09-12T13:30:32.892Z,30.11
2016-09-12T13:31:32.962Z,30.16
2016-09-12T13:32:32.645Z,30.16
2016-09-12T13:33:32.696Z,30.13
2016-09-12T13:34:33.028Z,30.2
2016-09-12T13:35:32.733Z,30.13
2016-09-12T13:36:32.760Z,30.11
2016-09-12T13:37:33.093Z,30.17
2016-09-12T13:38:32.811Z,30.14
2016-09-12T13:39:32.538Z,30.11
2016-09-12T13:40:33.198Z,30.17
2016-09-12T13:41:32.900Z,30.14
2016-09-12T13:42:33.304Z,30.11
2016-09-12T13:43:33.442Z,30.14
2016-09-12T13:44:33.237Z,30.14
2016-09-12T13:45:33.354Z,30.16
2016-09-12T13:46:33.403Z,30.2
2016-09-12T13:47:33.404Z,30.18
2016-09-12T13:48:33.318Z,30.13
2016-09-12T13:49:33.449Z,30.2
2016-09-12T13:50:33.492Z,30.17
2016-09-12T13:51:33.514Z,30.27
2016-09-12T13:52:33.656Z,30.17
2016-09-12T13:53:33.569Z,30.16
2016-09-12T13:54:33.699Z,30.24
2016-09-12T13:55:33.628Z,30.17
2016-09-12T13:56:33.661Z,30.26
2016-09-12T13:57:33.693Z,30.16
2016-09-12T13:58:33.731Z,30.1
2016-09-12T13:59:33.763Z,30.18
2016-09-12T14:00:33.479Z,30.14
2016-09-12T14:01:33.835Z,30.14
2016-09-12T14:02:33.845Z,30.18
2016-09-12T14:03:33.872Z,30.11
2016-09-12T14:04:33.904Z,30.13
2016-09-12T14:05:33.646Z,30.21
2016-09-12T14:06:33.651Z,30.33
2016-09-12T14:07:34.039Z,30.1
2016-09-12T14:08:33.712Z,30.14
2016-09-12T14:09:34.043Z,30.18
2016-09-12T14:10:34.099Z,30.14
2016-09-12T14:11:34.118Z,30.14
2016-09-12T14:12:34.237Z,30.24
2016-09-12T14:13:33.849Z,30.17
2016-09-12T14:14:33.882Z,30.24
2016-09-12T14:15:34.227Z,30.16
2016-09-12T14:16:34.294Z,30.17
2016-09-12T14:17:34.318Z,30.13
2016-09-12T14:18:34.314Z,30.14
2016-09-12T14:19:34.034Z,30.11
2016-09-12T14:20:34.393Z,30.11
2016-09-12T14:21:34.423Z,30.1
2016-09-12T14:22:34.500Z,30.11
2016-09-12T14:23:34.162Z,30.08
2016-09-12T14:24:34.629Z,30.03
2016-09-12T14:25:34.541Z,30.05
2016-09-12T14:26:34.553Z,30.13
2016-09-12T14:27:34.582Z,30.17
2016-09-12T14:28:34.627Z,30.29
2016-09-12T14:29:34.333Z,30.17
2016-09-12T14:30:34.353Z,30.14
2016-09-12T14:31:34.724Z,30.18
2016-09-12T14:32:34.789Z,30.11
2016-09-12T14:33:34.865Z,30.2
2016-09-12T14:34:34.796Z,30.26
2016-09-12T14:35:34.817Z,30.17
2016-09-12T14:36:34.861Z,30.27
2016-09-12T14:37:34.897Z,30.31
2016-09-12T14:38:34.903Z,30.24
2016-09-12T14:39:34.940Z,30.29
2016-09-12T14:40:34.826Z,30.27
2016-09-12T14:41:35.121Z,30.26
2016-09-12T14:42:35.036Z,30.2
2016-09-12T14:43:35.149Z,30.31
2016-09-12T14:44:34.917Z,30.29
2016-09-12T14:45:35.116Z,30.26
2016-09-12T14:46:35.172Z,30.26
2016-09-12T14:47:34.871Z,30.14
2016-09-12T14:48:35.215Z,30.16
2016-09-12T14:49:35.255Z,30.13
2016-09-12T14:50:35.265Z,30.18
2016-09-12T14:51:34.983Z,30.18
2016-09-12T14:52:35.495Z,30.17
2016-09-12T14:53:35.532Z,30.18
2016-09-12T14:54:35.551Z,30.2
2016-09-12T14:55:35.526Z,30.23
2016-09-12T14:56:35.492Z,30.14
2016-09-12T14:57:35.521Z,30.18
2016-09-12T14:58:35.193Z,30.14
2016-09-12T14:59:35.525Z,30.17
2016-09-12T15:00:35.247Z,30.14
2016-09-12T15:01:35.535Z,30.13
2016-09-12T15:02:35.305Z,30.05
2016-09-12T15:03:35.613Z,30.11
2016-09-12T15:04:35.587Z,30.1
2016-09-12T15:05:35.614Z,30.11
2016-09-12T15:06:35.754Z,30.08
2016-09-12T15:07:35.210Z,30.13
2016-09-12T15:08:35.833Z,30.03
2016-09-12T15:09:35.557Z,30.08
2016-09-12T15:10:35.881Z,30.11
2016-09-12T15:11:35.900Z,30.05
2016-09-12T15:12:35.932Z,30.06
2016-09-12T15:13:35.954Z,30.05
2016-09-12T15:14:35.995Z,30.08
2016-09-12T15:15:35.695Z,30.03
2016-09-12T15:16:36.052Z,30.13
2016-09-12T15:17:36.082Z,30.05
2016-09-12T15:18:36.112Z,30.03
2016-09-12T15:19:36.126Z,30.06
2016-09-12T15:20:36.162Z,29.99
2016-09-12T15:21:35.889Z,30.03
2016-09-12T15:22:36.243Z,30.05
2016-09-12T15:23:35.942Z,30.02
2016-09-12T15:24:36.296Z,29.87
2016-09-12T15:25:36.319Z,29.94
2016-09-12T15:26:36.344Z,29.95
2016-09-12T15:27:36.378Z,29.86
2016-09-12T15:28:36.404Z,29.81
2016-09-12T15:29:36.431Z,29.83
2016-09-12T15:30:36.465Z,29.9
2016-09-12T15:31:36.495Z,29.95
2016-09-12T15:32:36.205Z,29.83
2016-09-12T15:33:36.253Z,29.87
2016-09-12T15:34:36.590Z,29.86
2016-09-12T15:35:36.623Z,29.9
2016-09-12T15:36:36.634Z,29.86
2016-09-12T15:37:36.656Z,29.86
2016-09-12T15:38:36.692Z,29.86
2016-09-12T15:39:36.717Z,29.8
2016-09-12T15:40:36.443Z,29.81
2016-09-12T15:41:36.467Z,29.83
2016-09-12T15:42:36.513Z,29.84
2016-09-12T15:43:36.858Z,29.73
2016-09-12T15:44:36.255Z,29.76
2016-09-12T15:45:36.902Z,29.68
2016-09-12T15:46:36.941Z,29.68
2016-09-12T15:47:36.653Z,29.68
2016-09-12T15:48:36.992Z,29.64
2016-09-12T15:49:37.013Z,29.64
2016-09-12T15:50:37.075Z,29.59
2016-09-12T15:51:37.092Z,29.64
2016-09-12T15:52:37.151Z,29.64
2016-09-12T15:53:37.193Z,29.53
2016-09-12T15:54:37.172Z,29.58
2016-09-12T15:55:36.580Z,29.57
2016-09-12T15:56:36.911Z,29.52
2016-09-12T15:57:37.065Z,29.53
2016-09-12T15:58:36.664Z,29.49
2016-09-12T15:59:37.312Z,29.43
2016-09-12T16:00:37.378Z,29.44
2016-09-12T16:01:37.373Z,29.44
2016-09-12T16:02:37.408Z,29.43
2016-09-12T16:03:37.483Z,29.42
2016-09-12T16:04:37.175Z,29.4
2016-09-12T16:05:37.491Z,29.39
2016-09-12T16:06:37.524Z,29.35
2016-09-12T16:07:37.574Z,29.4
2016-09-12T16:08:37.575Z,29.31
2016-09-12T16:09:36.992Z,29.31
2016-09-12T16:10:37.341Z,29.25
2016-09-12T16:11:37.694Z,29.3
2016-09-12T16:12:37.712Z,29.24
2016-09-12T16:13:37.743Z,29.25
2016-09-12T16:14:37.463Z,29.27
2016-09-12T16:15:37.473Z,29.16
2016-09-12T16:16:37.820Z,29.15
2016-09-12T16:17:37.544Z,29.09
2016-09-12T16:18:37.567Z,29.16
2016-09-12T16:19:37.902Z,29.12
2016-09-12T16:20:37.951Z,29.1
2016-09-12T16:21:37.645Z,28.97
2016-09-12T16:22:38.005Z,29
2016-09-12T16:23:37.701Z,29.02
2016-09-12T16:24:38.056Z,29
2016-09-12T16:25:38.075Z,28.94
2016-09-12T16:26:38.141Z,28.9
2016-09-12T16:27:38.149Z,28.87
2016-09-12T16:28:38.188Z,28.86
2016-09-12T16:29:38.213Z,28.77
2016-09-12T16:30:38.370Z,28.82
2016-09-12T16:31:38.260Z,28.77
2016-09-12T16:32:38.361Z,28.74
2016-09-12T16:33:38.318Z,28.74
2016-09-12T16:34:38.033Z,28.7
2016-09-12T16:35:38.056Z,28.74
2016-09-12T16:36:39.388Z,28.64
2016-09-12T16:37:38.608Z,28.6
2016-09-12T16:38:38.625Z,28.55
2016-09-12T16:39:38.349Z,28.47
2016-09-12T16:40:38.877Z,28.5
2016-09-12T16:41:38.718Z,28.47
2016-09-12T16:42:38.530Z,28.4
2016-09-12T16:43:38.674Z,28.34
2016-09-12T16:44:38.780Z,28.3
2016-09-12T16:45:38.346Z,28.34
2016-09-12T16:46:38.744Z,28.2
2016-09-12T16:47:38.410Z,28.28
2016-09-12T16:48:38.787Z,28.2
2016-09-12T16:49:38.801Z,28.12
2016-09-12T16:50:38.524Z,28.12
2016-09-12T16:51:38.416Z,28.09
2016-09-12T16:52:38.415Z,28.1
2016-09-12T16:53:38.925Z,28.06
2016-09-12T16:54:38.801Z,28.1
2016-09-12T16:55:38.661Z,28.03
2016-09-12T16:56:38.674Z,27.94
2016-09-12T16:57:39.043Z,28
2016-09-12T16:58:39.052Z,27.95
2016-09-12T16:59:39.088Z,27.95
2016-09-12T17:00:38.831Z,27.83
2016-09-12T17:01:39.257Z,27.76
2016-09-12T17:02:39.157Z,27.73
2016-09-12T17:03:38.963Z,27.78
2016-09-12T17:04:39.211Z,27.68
2016-09-12T17:05:39.267Z,27.66
2016-09-12T17:06:39.380Z,27.58
2016-09-12T17:07:39.352Z,27.53
2016-09-12T17:08:39.318Z,27.37
2016-09-12T17:09:39.354Z,27.48
2016-09-12T17:10:39.380Z,27.44
2016-09-12T17:11:39.422Z,27.4
2016-09-12T17:12:39.467Z,27.35
2016-09-12T17:13:39.484Z,27.33
2016-09-12T17:14:39.526Z,27.19
2016-09-12T17:15:38.899Z,27.18
2016-09-12T17:16:39.563Z,27.16
2016-09-12T17:17:39.607Z,27.08
2016-09-12T17:18:39.304Z,26.91
2016-09-12T17:19:39.649Z,26.91
2016-09-12T17:20:39.352Z,26.97
2016-09-12T17:21:39.100Z,26.88
2016-09-12T17:22:39.741Z,26.83
2016-09-12T17:23:39.874Z,26.74
2016-09-12T17:24:39.469Z,26.78
2016-09-12T17:25:39.806Z,26.63
2016-09-12T17:26:39.848Z,26.6
2016-09-12T17:27:39.606Z,26.53
2016-09-12T17:28:39.903Z,26.52
2016-09-12T17:29:39.614Z,26.49
2016-09-12T17:30:39.969Z,26.48
2016-09-12T17:31:39.982Z,26.37
2016-09-12T17:32:40.025Z,26.44
2016-09-12T17:33:40.030Z,26.36
2016-09-12T17:34:40.086Z,26.31
2016-09-12T17:35:40.098Z,26.23
2016-09-12T17:36:39.790Z,26.13
2016-09-12T17:37:39.820Z,26.06
2016-09-12T17:38:39.864Z,26.06
2016-09-12T17:39:40.206Z,25.98
2016-09-12T17:40:39.911Z,25.89
2016-09-12T17:41:40.387Z,25.83
2016-09-12T17:42:40.291Z,25.7
2016-09-12T17:43:40.002Z,25.71
2016-09-12T17:44:40.346Z,25.68
2016-09-12T17:45:40.082Z,25.62
2016-09-12T17:46:40.416Z,25.56
2016-09-12T17:47:40.425Z,25.55
2016-09-12T17:48:40.141Z,25.43
2016-09-12T17:49:40.506Z,25.37
2016-09-12T17:50:40.500Z,25.33
2016-09-12T17:52:12.513Z,25.26
2016-09-12T17:52:40.693Z,25.26
2016-09-12T17:53:40.600Z,25.29
2016-09-12T17:54:40.643Z,25.26
2016-09-12T17:55:40.663Z,25.24
2016-09-12T17:56:40.363Z,25.29
2016-09-12T17:57:40.709Z,25.18
2016-09-12T17:58:40.723Z,25.25
2016-09-12T17:59:40.133Z,25.21
2016-09-12T18:00:40.486Z,25.21
2016-09-12T18:01:40.513Z,25.22
2016-09-12T18:02:40.870Z,25.15
2016-09-12T18:03:40.552Z,25.09
2016-09-12T18:04:40.909Z,25.01
2016-09-12T18:05:41.020Z,24.93
2016-09-12T18:06:40.966Z,24.96
2016-09-12T18:07:41.056Z,24.89
2016-09-12T18:08:41.007Z,24.89
2016-09-12T18:09:41.069Z,24.89
2016-09-12T18:10:41.067Z,24.92
2016-09-12T18:11:41.303Z,24.77
2016-09-12T18:12:41.121Z,24.79
2016-09-12T18:13:40.833Z,24.75
2016-09-12T18:14:40.852Z,24.71
2016-09-12T18:15:41.210Z,24.75
2016-09-12T18:16:41.300Z,24.68
2016-09-12T18:17:40.627Z,24.61
2016-09-12T18:18:41.301Z,24.61
2016-09-12T18:19:41.301Z,24.53
2016-09-12T18:20:40.709Z,24.53
2016-09-12T18:21:41.361Z,24.48
2016-09-12T18:22:41.397Z,24.43
2016-09-12T18:23:41.428Z,24.43
2016-09-12T18:24:41.563Z,24.43
2016-09-12T18:25:41.487Z,24.38
2016-09-12T18:26:41.711Z,24.36
2016-09-12T18:27:41.633Z,24.26
2016-09-12T18:28:41.692Z,24.25
2016-09-12T18:29:41.758Z,24.19
2016-09-12T18:30:41.749Z,24.14
2016-09-12T18:31:41.451Z,24.13
2016-09-12T18:32:41.706Z,24.19
2016-09-12T18:33:41.422Z,24.04
2016-09-12T18:34:41.733Z,24.03
2016-09-12T18:35:41.863Z,24.03
2016-09-12T18:36:41.529Z,23.96
2016-09-12T18:37:41.473Z,23.95
2016-09-12T18:38:41.970Z,24
2016-09-12T18:39:41.866Z,23.95
2016-09-12T18:40:41.937Z,23.99
2016-09-12T18:41:41.903Z,23.92
2016-09-12T18:42:41.923Z,23.95
2016-09-12T18:43:43.385Z,23.99
2016-09-12T18:44:42.040Z,23.99
2016-09-12T18:45:42.082Z,23.91
2016-09-12T18:46:42.071Z,23.84
2016-09-12T18:47:42.074Z,23.85
2016-09-12T18:48:42.322Z,23.88
2016-09-12T18:49:42.136Z,23.85
2016-09-12T18:50:42.163Z,23.84
2016-09-12T18:51:41.864Z,23.79
2016-09-12T18:52:42.247Z,23.77
2016-09-12T18:53:42.240Z,23.67
2016-09-12T18:54:42.320Z,23.66
2016-09-12T18:55:42.325Z,23.59
2016-09-12T18:56:42.562Z,23.56
2016-09-12T18:57:42.369Z,23.51
2016-09-12T18:58:42.401Z,23.52
2016-09-12T18:59:42.103Z,23.54
2016-09-12T19:00:42.452Z,23.49
2016-09-12T19:01:42.462Z,23.64
2016-09-12T19:02:42.483Z,23.52
2016-09-12T19:03:42.511Z,23.62
2016-09-12T19:04:42.532Z,23.51
2016-09-12T19:05:42.607Z,23.52
2016-09-12T19:06:42.789Z,23.44
2016-09-12T19:07:42.705Z,23.49
2016-09-12T19:08:42.659Z,23.39
2016-09-12T19:09:42.385Z,23.39
2016-09-12T19:10:42.690Z,23.28
2016-09-12T19:11:42.805Z,23.34
2016-09-12T19:12:42.781Z,23.28
2016-09-12T19:13:42.754Z,23.23
2016-09-12T19:14:42.500Z,23.16
2016-09-12T19:15:42.523Z,23.1
2016-09-12T19:16:42.896Z,23.02
2016-09-12T19:17:42.894Z,23.02
2016-09-12T19:18:42.922Z,22.96